createdAt,value
2018-11-27T00:00:26.747Z,-2.30
2018-11-27T00:02:58.728Z,-2.30
2018-11-27T00:05:27.502Z,-2.40
2018-11-27T00:07:56.071Z,-2.50
2018-11-27T00:10:26.017Z,-2.50
2018-11-27T00:12:56.253Z,-2.60
2018-11-27T00:15:24.989Z,-2.60
2018-11-27T00:17:53.973Z,-2.70
2018-11-27T00:20:22.936Z,-2.80
2018-11-27T00:22:51.557Z,-2.90
2018-11-27T00:25:20.300Z,-3.00
2018-11-27T00:27:48.859Z,-3.10
2018-11-27T00:30:19.357Z,-3.20
2018-11-27T00:32:47.963Z,-3.30
2018-11-27T00:35:17.821Z,-3.40
2018-11-27T00:37:46.388Z,-3.60
2018-11-27T00:40:16.416Z,-3.70
2018-11-27T00:42:45.007Z,-3.80
2018-11-27T00:45:14.503Z,-3.90
2018-11-27T00:47:43.783Z,-4.00
2018-11-27T00:50:14.323Z,-4.10
2018-11-27T00:52:42.879Z,-4.10
2018-11-27T00:55:12.562Z,-4.20
2018-11-27T00:57:41.943Z,-4.20
2018-11-27T01:00:18.282Z,-4.30
2018-11-27T01:02:46.963Z,-4.30
2018-11-27T01:05:17.728Z,-4.30
2018-11-27T01:07:46.444Z,-4.40
2018-11-27T01:10:19.864Z,-4.50
2018-11-27T01:12:48.499Z,-4.50
2018-11-27T01:15:17.199Z,-4.60
2018-11-27T01:17:48.924Z,-4.60
2018-11-27T01:20:20.383Z,-4.60
2018-11-27T01:22:48.940Z,-4.60
2018-11-27T01:25:17.483Z,-4.70
2018-11-27T01:27:46.084Z,-4.70
2018-11-27T01:30:15.694Z,-4.70
2018-11-27T01:32:44.375Z,-4.70
2018-11-27T01:35:13.986Z,-4.80
2018-11-27T01:37:42.514Z,-4.80
2018-11-27T01:40:17.929Z,-4.80
2018-11-27T01:42:48.411Z,-4.80
2018-11-27T01:45:18.572Z,-4.80
2018-11-27T01:47:47.345Z,-4.90
2018-11-27T01:50:16.802Z,-5.00
2018-11-27T01:52:45.488Z,-5.10
2018-11-27T01:55:19.007Z,-5.10
2018-11-27T01:57:47.719Z,-5.20
2018-11-27T02:00:21.736Z,-5.30
2018-11-27T02:02:50.593Z,-5.30
2018-11-27T02:05:19.269Z,-5.40
2018-11-27T02:07:47.836Z,-5.40
2018-11-27T02:10:16.551Z,-5.40
2018-11-27T02:12:47.101Z,-5.50
2018-11-27T02:15:17.865Z,-5.50
2018-11-27T02:17:46.535Z,-5.60
2018-11-27T02:20:15.103Z,-5.60
2018-11-27T02:22:43.693Z,-5.70
2018-11-27T02:25:14.615Z,-5.70
2018-11-27T02:27:43.339Z,-5.80
2018-11-27T02:30:13.524Z,-5.80
2018-11-27T02:32:42.267Z,-5.80
2018-11-27T02:35:12.988Z,-5.80
2018-11-27T02:37:41.575Z,-5.80
2018-11-27T02:40:12.403Z,-5.80
2018-11-27T02:42:41.085Z,-5.70
2018-11-27T02:45:11.011Z,-5.70
2018-11-27T02:47:39.971Z,-5.70
2018-11-27T02:50:10.702Z,-5.80
2018-11-27T02:52:39.351Z,-5.80
2018-11-27T02:55:10.480Z,-5.80
2018-11-27T02:57:39.007Z,-5.80
2018-11-27T03:00:09.781Z,-5.90
2018-11-27T03:02:38.470Z,-5.90
2018-11-27T03:05:12.007Z,-6.00
2018-11-27T03:07:40.620Z,-6.00
2018-11-27T03:10:11.694Z,-6.10
2018-11-27T03:12:40.348Z,-6.10
2018-11-27T03:15:11.691Z,-6.10
2018-11-27T03:17:40.404Z,-6.20
2018-11-27T03:20:11.032Z,-6.20
2018-11-27T03:22:39.747Z,-6.30
2018-11-27T03:25:13.219Z,-6.30
2018-11-27T03:27:41.838Z,-6.30
2018-11-27T03:30:15.386Z,-6.30
2018-11-27T03:32:44.052Z,-6.30
2018-11-27T03:35:16.763Z,-6.30
2018-11-27T03:37:47.193Z,-6.20
2018-11-27T03:40:23.434Z,-6.30
2018-11-27T03:42:51.961Z,-6.20
2018-11-27T03:45:21.094Z,-6.20
2018-11-27T03:47:49.742Z,-6.20
2018-11-27T03:50:24.477Z,-6.20
2018-11-27T03:52:53.066Z,-6.20
2018-11-27T03:55:21.653Z,-6.20
2018-11-27T03:57:50.219Z,-6.20
2018-11-27T04:00:20.187Z,-6.30
2018-11-27T04:02:50.113Z,-6.30
2018-11-27T04:05:18.698Z,-6.30
2018-11-27T04:07:47.351Z,-6.30
2018-11-27T04:10:17.249Z,-6.30
2018-11-27T04:12:45.814Z,-6.30
2018-11-27T04:15:14.470Z,-6.30
2018-11-27T04:17:43.021Z,-6.30
2018-11-27T04:20:12.359Z,-6.30
2018-11-27T04:22:41.391Z,-6.30
2018-11-27T04:25:14.037Z,-6.30
2018-11-27T04:27:42.895Z,-6.20
2018-11-27T04:30:12.696Z,-6.20
2018-11-27T04:32:41.406Z,-6.20
2018-11-27T04:35:11.276Z,-6.20
2018-11-27T04:37:39.972Z,-6.10
2018-11-27T04:40:10.099Z,-6.10
2018-11-27T04:42:39.168Z,-6.20
2018-11-27T04:45:15.618Z,-6.20
2018-11-27T04:47:44.302Z,-6.20
2018-11-27T04:50:13.897Z,-6.20
2018-11-27T04:52:42.648Z,-6.30
2018-11-27T04:55:15.274Z,-6.30
2018-11-27T04:57:44.363Z,-6.30
2018-11-27T05:00:17.855Z,-6.30
2018-11-27T05:02:46.447Z,-6.30
2018-11-27T05:05:15.087Z,-6.30
2018-11-27T05:07:43.638Z,-6.30
2018-11-27T05:10:13.278Z,-6.30
2018-11-27T05:12:42.267Z,-6.30
2018-11-27T05:15:22.587Z,-6.20
2018-11-27T05:17:53.378Z,-6.20
2018-11-27T05:20:22.040Z,-6.20
2018-11-27T05:22:50.578Z,-6.20
2018-11-27T05:25:19.811Z,-6.30
2018-11-27T05:27:54.212Z,-6.20
2018-11-27T05:30:23.952Z,-6.20
2018-11-27T05:32:52.595Z,-6.20
2018-11-27T05:35:22.524Z,-6.20
2018-11-27T05:37:51.306Z,-6.20
2018-11-27T05:40:22.011Z,-6.20
2018-11-27T05:42:51.803Z,-6.20
2018-11-27T05:45:21.407Z,-6.10
2018-11-27T05:47:49.955Z,-6.10
2018-11-27T05:50:19.123Z,-6.10
2018-11-27T05:52:47.735Z,-6.10
2018-11-27T05:55:16.815Z,-6.10
2018-11-27T05:57:46.627Z,-6.10
2018-11-27T06:00:19.463Z,-6.00
2018-11-27T06:02:49.183Z,-6.00
2018-11-27T06:05:18.816Z,-6.00
2018-11-27T06:07:47.383Z,-6.00
2018-11-27T06:10:17.800Z,-6.00
2018-11-27T06:12:46.391Z,-6.00
2018-11-27T06:15:16.814Z,-6.00
2018-11-27T06:17:46.075Z,-6.10
2018-11-27T06:20:17.808Z,-6.10
2018-11-27T06:22:46.419Z,-6.10
2018-11-27T06:25:17.167Z,-6.10
2018-11-27T06:27:46.700Z,-6.00
2018-11-27T06:30:19.303Z,-6.00
2018-11-27T06:32:47.886Z,-6.00
2018-11-27T06:35:22.236Z,-6.00
2018-11-27T06:37:51.009Z,-6.00
2018-11-27T06:40:23.355Z,-6.00
2018-11-27T06:42:51.952Z,-6.10
2018-11-27T06:45:21.117Z,-6.10
2018-11-27T06:47:54.035Z,-6.10
2018-11-27T06:50:23.213Z,-6.20
2018-11-27T06:52:51.903Z,-6.20
2018-11-27T06:55:21.625Z,-6.20
2018-11-27T06:57:50.342Z,-6.20
2018-11-27T07:00:19.992Z,-6.20
2018-11-27T07:02:48.583Z,-6.20
2018-11-27T07:05:17.187Z,-6.20
2018-11-27T07:07:45.719Z,-6.10
2018-11-27T07:10:21.539Z,-6.20
2018-11-27T07:12:51.443Z,-6.10
2018-11-27T07:15:22.293Z,-6.10
2018-11-27T07:17:51.379Z,-6.10
2018-11-27T07:20:20.003Z,-6.10
2018-11-27T07:22:48.579Z,-6.10
2018-11-27T07:25:17.851Z,-6.10
2018-11-27T07:27:49.351Z,-6.10
2018-11-27T07:30:20.344Z,-6.00
2018-11-27T07:32:48.783Z,-6.00
2018-11-27T07:35:18.146Z,-6.00
2018-11-27T07:37:46.811Z,-6.00
2018-11-27T07:40:16.654Z,-6.00
2018-11-27T07:42:45.367Z,-6.00
2018-11-27T07:45:16.770Z,-5.90
2018-11-27T07:47:45.431Z,-5.90
2018-11-27T07:50:14.787Z,-5.90
2018-11-27T07:52:43.392Z,-5.90
2018-11-27T07:55:12.768Z,-5.80
2018-11-27T07:57:41.340Z,-5.70
2018-11-27T08:00:18.554Z,-5.70
2018-11-27T08:02:49.648Z,-5.60
2018-11-27T08:05:21.646Z,-5.50
2018-11-27T08:07:51.441Z,-5.50
2018-11-27T08:10:22.065Z,-5.40
2018-11-27T08:12:50.680Z,-5.30
2018-11-27T08:15:20.632Z,-5.30
2018-11-27T08:17:49.188Z,-5.20
2018-11-27T08:20:19.993Z,-5.20
2018-11-27T08:22:48.559Z,-5.10
2018-11-27T08:25:17.137Z,-5.10
2018-11-27T08:27:45.712Z,-5.00
2018-11-27T08:30:17.897Z,-4.90
2018-11-27T08:32:46.507Z,-4.90
2018-11-27T08:35:19.723Z,-4.80
2018-11-27T08:37:49.320Z,-4.70
2018-11-27T08:40:18.906Z,-4.60
2018-11-27T08:42:47.445Z,-4.50
2018-11-27T08:45:17.959Z,-4.40
2018-11-27T08:47:47.293Z,-4.30
2018-11-27T08:50:17.665Z,-4.30
2018-11-27T08:52:48.528Z,-4.20
2018-11-27T08:55:21.629Z,-4.10
2018-11-27T08:57:50.339Z,-4.10
2018-11-27T09:00:20.001Z,-4.00
2018-11-27T09:02:48.531Z,-3.90
2018-11-27T09:05:17.175Z,-3.90
2018-11-27T09:07:46.310Z,-3.80
2018-11-27T09:10:16.071Z,-3.70
2018-11-27T09:12:44.689Z,-3.70
2018-11-27T09:15:14.377Z,-3.60
2018-11-27T09:17:44.489Z,-3.60
2018-11-27T09:20:13.331Z,-3.50
2018-11-27T09:22:41.919Z,-3.50
2018-11-27T09:25:12.742Z,-3.50
2018-11-27T09:27:41.367Z,-3.40
2018-11-27T09:30:12.687Z,-3.40
2018-11-27T09:32:41.261Z,-3.30
2018-11-27T09:35:10.563Z,-3.20
2018-11-27T09:37:39.151Z,-3.20
2018-11-27T09:40:11.327Z,-3.20
2018-11-27T09:42:39.867Z,-3.10
2018-11-27T09:45:24.734Z,-3.10
2018-11-27T09:47:58.083Z,-3.00
2018-11-27T09:50:27.236Z,-3.00
2018-11-27T09:52:55.800Z,-3.00
2018-11-27T09:55:25.617Z,-2.90
2018-11-27T09:57:59.178Z,-2.90
2018-11-27T10:00:30.339Z,-2.80
2018-11-27T10:03:02.027Z,-2.80
2018-11-27T10:05:30.642Z,-2.80
2018-11-27T10:07:59.228Z,-2.70
2018-11-27T10:10:27.826Z,-2.70
2018-11-27T10:12:56.381Z,-2.60
2018-11-27T10:15:26.069Z,-2.60
2018-11-27T10:17:56.901Z,-2.50
2018-11-27T10:20:28.745Z,-2.50
2018-11-27T10:22:57.299Z,-2.40
2018-11-27T10:25:25.847Z,-2.40
2018-11-27T10:27:54.501Z,-2.30
2018-11-27T10:30:24.431Z,-2.30
2018-11-27T10:32:56.137Z,-2.30
2018-11-27T10:35:30.294Z,-2.20
2018-11-27T10:37:59.692Z,-2.20
2018-11-27T10:40:28.548Z,-2.10
2018-11-27T10:42:57.111Z,-2.10
2018-11-27T10:45:25.720Z,-2.00
2018-11-27T10:47:55.207Z,-2.00
2018-11-27T10:50:24.009Z,-1.90
2018-11-27T10:52:53.631Z,-1.90
2018-11-27T10:55:22.790Z,-1.90
2018-11-27T10:57:51.452Z,-1.80
2018-11-27T11:00:31.896Z,-1.80
2018-11-27T11:04:04.087Z,-1.70
2018-11-27T11:06:33.299Z,-1.60
2018-11-27T11:09:02.367Z,-1.60
2018-11-27T11:11:31.026Z,-1.60
2018-11-27T11:13:59.605Z,-1.50
2018-11-27T11:16:28.198Z,-1.50
2018-11-27T11:18:57.191Z,-1.40
2018-11-27T11:21:25.755Z,-1.40
2018-11-27T11:23:54.351Z,-1.40
2018-11-27T11:26:22.939Z,-1.30
2018-11-27T11:28:51.583Z,-1.30
2018-11-27T11:31:20.218Z,-1.30
2018-11-27T11:33:48.755Z,-1.20
2018-11-27T11:36:17.340Z,-1.20
2018-11-27T11:38:45.984Z,-1.20
2018-11-27T11:41:14.755Z,-1.10
2018-11-27T11:43:43.320Z,-1.10
2018-11-27T11:46:11.871Z,-1.10
2018-11-27T11:48:40.450Z,-1.00
2018-11-27T11:51:09.056Z,-1.00
2018-11-27T11:53:37.650Z,-1.00
2018-11-27T11:56:07.871Z,-0.90
2018-11-27T11:58:36.473Z,-0.90
2018-11-27T12:01:05.250Z,-0.80
2018-11-27T12:03:33.839Z,-0.80
2018-11-27T12:06:02.491Z,-0.80
2018-11-27T12:08:31.066Z,-0.70
2018-11-27T12:10:59.688Z,-0.70
2018-11-27T12:13:28.304Z,-0.70
2018-11-27T12:15:56.874Z,-0.70
2018-11-27T12:18:25.414Z,-0.70
2018-11-27T12:20:54.075Z,-0.60
2018-11-27T12:23:22.655Z,-0.60
2018-11-27T12:25:51.216Z,-0.60
2018-11-27T12:28:19.825Z,-0.60
2018-11-27T12:30:48.431Z,-0.60
2018-11-27T12:33:17.167Z,-0.50
2018-11-27T12:35:45.840Z,-0.50
2018-11-27T12:38:14.459Z,-0.50
2018-11-27T12:40:43.050Z,-0.50
2018-11-27T12:43:11.749Z,-0.50
2018-11-27T12:45:40.392Z,-0.50
2018-11-27T12:48:09.716Z,-0.40
2018-11-27T12:50:40.214Z,-0.40
2018-11-27T12:53:10.172Z,-0.40
2018-11-27T12:55:40.115Z,-0.40
2018-11-27T12:58:08.759Z,-0.40
2018-11-27T13:00:37.363Z,-0.40
2018-11-27T13:03:06.175Z,-0.40
2018-11-27T13:05:39.121Z,-0.40
2018-11-27T13:08:15.724Z,-0.40
2018-11-27T13:10:44.337Z,-0.50
2018-11-27T13:13:12.992Z,-0.50
2018-11-27T13:15:42.272Z,-0.50
2018-11-27T13:18:11.081Z,-0.50
2018-11-27T13:20:40.348Z,-0.50
2018-11-27T13:23:09.111Z,-0.50
2018-11-27T13:25:38.624Z,-0.50
2018-11-27T13:28:09.503Z,-0.50
2018-11-27T13:30:47.201Z,-0.60
2018-11-27T13:33:27.384Z,-0.60
2018-11-27T13:35:56.018Z,-0.60
2018-11-27T13:38:26.087Z,-0.60
2018-11-27T13:40:53.868Z,-0.60
2018-11-27T13:43:23.877Z,-0.70
2018-11-27T13:45:52.583Z,-0.70
2018-11-27T13:48:21.202Z,-0.70
2018-11-27T13:50:49.822Z,-0.70
2018-11-27T13:53:18.417Z,-0.80
2018-11-27T13:55:46.971Z,-0.80
2018-11-27T13:58:15.601Z,-0.80
2018-11-27T14:00:44.239Z,-0.90
2018-11-27T14:03:12.871Z,-0.90
2018-11-27T14:05:41.447Z,-1.00
2018-11-27T14:08:11.031Z,-1.00
2018-11-27T14:10:39.976Z,-1.00
2018-11-27T14:13:09.177Z,-1.00
2018-11-27T14:15:38.085Z,-1.10
2018-11-27T14:18:07.283Z,-1.20
2018-11-27T14:20:36.037Z,-1.30
2018-11-27T14:23:05.029Z,-1.30
2018-11-27T14:25:33.611Z,-1.30
2018-11-27T14:28:02.677Z,-1.40
2018-11-27T14:30:31.336Z,-1.40
2018-11-27T14:32:59.947Z,-1.50
2018-11-27T14:35:28.557Z,-1.50
2018-11-27T14:37:57.138Z,-1.60
2018-11-27T14:40:27.859Z,-1.60
2018-11-27T14:42:56.435Z,-1.70
2018-11-27T14:45:27.569Z,-1.80
2018-11-27T14:47:58.973Z,-1.80
2018-11-27T14:50:27.573Z,-1.90
2018-11-27T14:52:56.214Z,-2.00
2018-11-27T14:55:29.166Z,-2.00
2018-11-27T14:58:00.162Z,-2.10
2018-11-27T15:00:30.057Z,-2.20
2018-11-27T15:02:59.173Z,-2.20
2018-11-27T15:05:37.827Z,-2.30
2018-11-27T15:08:13.898Z,-2.30
2018-11-27T15:10:42.564Z,-2.40
2018-11-27T15:13:12.312Z,-2.50
2018-11-27T15:15:40.939Z,-2.50
2018-11-27T15:18:09.596Z,-2.60
2018-11-27T15:20:38.198Z,-2.70
2018-11-27T15:23:06.836Z,-2.70
2018-11-27T15:25:35.555Z,-2.70
2018-11-27T15:28:05.734Z,-2.80
2018-11-27T15:30:36.200Z,-2.90
2018-11-27T15:33:05.075Z,-2.90
2018-11-27T15:35:33.680Z,-2.90
2018-11-27T15:38:02.478Z,-3.00
2018-11-27T15:40:31.127Z,-3.10
2018-11-27T15:43:00.188Z,-3.10
2018-11-27T15:45:30.962Z,-3.20
2018-11-27T15:47:59.551Z,-3.30
2018-11-27T15:50:28.127Z,-3.40
2018-11-27T15:52:56.850Z,-3.40
2018-11-27T15:55:35.388Z,-3.50
2018-11-27T15:58:09.813Z,-3.50
2018-11-27T16:00:38.678Z,-3.60
2018-11-27T16:03:07.779Z,-3.70
2018-11-27T16:05:37.169Z,-3.70
2018-11-27T16:08:06.681Z,-3.80
2018-11-27T16:10:35.207Z,-3.80
2018-11-27T16:13:03.840Z,-3.90
2018-11-27T16:15:32.430Z,-3.90
2018-11-27T16:18:01.006Z,-4.00
2018-11-27T16:20:29.679Z,-4.10
2018-11-27T16:22:58.384Z,-4.10
2018-11-27T16:25:26.964Z,-4.10
2018-11-27T16:27:55.535Z,-4.20
2018-11-27T16:30:27.093Z,-4.20
2018-11-27T16:32:55.747Z,-4.30
2018-11-27T16:35:24.526Z,-4.30
2018-11-27T16:38:00.714Z,-4.40
2018-11-27T16:40:31.948Z,-4.40
2018-11-27T16:43:00.506Z,-4.40
2018-11-27T16:45:29.131Z,-4.50
2018-11-27T16:47:57.862Z,-4.50
2018-11-27T16:50:26.431Z,-4.50
2018-11-27T16:52:55.236Z,-4.60
2018-11-27T16:55:24.340Z,-4.70
2018-11-27T16:57:52.882Z,-4.70
2018-11-27T17:00:27.494Z,-4.80
2018-11-27T17:02:59.281Z,-4.80
2018-11-27T17:05:29.840Z,-4.80
2018-11-27T17:07:58.623Z,-4.80
2018-11-27T17:10:27.198Z,-4.80
2018-11-27T17:12:57.727Z,-4.90
2018-11-27T17:15:27.386Z,-4.90
2018-11-27T17:17:56.015Z,-5.00
2018-11-27T17:20:29.777Z,-5.00
2018-11-27T17:22:59.723Z,-5.00
2018-11-27T17:25:28.266Z,-5.10
2018-11-27T17:27:58.964Z,-5.10
2018-11-27T17:30:32.262Z,-5.10
2018-11-27T17:33:00.972Z,-5.10
2018-11-27T17:35:29.591Z,-5.10
2018-11-27T17:37:58.143Z,-5.20
2018-11-27T17:40:26.697Z,-5.20
2018-11-27T17:42:55.217Z,-5.20
2018-11-27T17:45:23.772Z,-5.30
2018-11-27T17:47:52.350Z,-5.30
2018-11-27T17:50:20.917Z,-5.30
2018-11-27T17:52:49.461Z,-5.30
2018-11-27T17:55:18.031Z,-5.30
2018-11-27T17:57:46.643Z,-5.30
2018-11-27T18:00:18.299Z,-5.20
2018-11-27T18:02:49.412Z,-5.20
2018-11-27T18:05:18.198Z,-5.10
2018-11-27T18:07:47.076Z,-5.00
2018-11-27T18:10:15.669Z,-5.00
2018-11-27T18:12:44.275Z,-4.90
2018-11-27T18:15:17.292Z,-4.80
2018-11-27T18:17:45.924Z,-4.80
2018-11-27T18:20:14.667Z,-4.70
2018-11-27T18:22:43.239Z,-4.70
2018-11-27T18:25:14.555Z,-4.70
2018-11-27T18:27:44.147Z,-4.60
2018-11-27T18:30:13.882Z,-4.60
2018-11-27T18:32:42.535Z,-4.60
2018-11-27T18:35:14.279Z,-4.60
2018-11-27T18:37:42.889Z,-4.50
2018-11-27T18:40:12.523Z,-4.50
2018-11-27T18:42:41.235Z,-4.50
2018-11-27T18:45:13.896Z,-4.50
2018-11-27T18:47:42.487Z,-4.50
2018-11-27T18:50:11.560Z,-4.60
2018-11-27T18:52:40.175Z,-4.60
2018-11-27T18:55:10.112Z,-4.60
2018-11-27T18:57:38.770Z,-4.70
2018-11-27T19:00:12.179Z,-4.70
2018-11-27T19:02:40.811Z,-4.70
2018-11-27T19:05:09.464Z,-4.70
2018-11-27T19:07:38.951Z,-4.80
2018-11-27T19:10:11.943Z,-4.90
2018-11-27T19:12:40.667Z,-4.90
2018-11-27T19:15:12.031Z,-5.00
2018-11-27T19:17:40.839Z,-5.00
2018-11-27T19:20:11.329Z,-5.10
2018-11-27T19:22:39.935Z,-5.20
2018-11-27T19:25:11.801Z,-5.20
2018-11-27T19:27:40.457Z,-5.30
2018-11-27T19:30:16.050Z,-5.30
2018-11-27T19:32:40.631Z,-5.30
2018-11-27T19:35:10.779Z,-5.30
2018-11-27T19:37:39.341Z,-5.40
2018-11-27T19:40:11.211Z,-5.40
2018-11-27T19:42:39.879Z,-5.50
2018-11-27T19:45:24.663Z,-5.60
2018-11-27T19:47:54.816Z,-5.60
2018-11-27T19:50:23.496Z,-5.70
2018-11-27T19:52:54.271Z,-5.80
2018-11-27T19:55:22.866Z,-5.80
2018-11-27T19:57:51.539Z,-5.80
2018-11-27T20:00:24.404Z,-5.90
2018-11-27T20:02:53.566Z,-5.90
2018-11-27T20:05:23.398Z,-6.00
2018-11-27T20:07:52.846Z,-6.00
2018-11-27T20:10:21.441Z,-6.00
2018-11-27T20:12:50.179Z,-6.10
2018-11-27T20:15:21.060Z,-6.10
2018-11-27T20:17:50.393Z,-6.20
2018-11-27T20:20:20.839Z,-6.20
2018-11-27T20:22:49.452Z,-6.30
2018-11-27T20:25:19.072Z,-6.30
2018-11-27T20:27:47.683Z,-6.30
2018-11-27T20:30:19.015Z,-6.40
2018-11-27T20:32:51.071Z,-6.30
2018-11-27T20:35:19.663Z,-6.30
2018-11-27T20:37:49.255Z,-6.30
2018-11-27T20:40:18.779Z,-6.30
2018-11-27T20:42:47.423Z,-6.30
2018-11-27T20:45:19.489Z,-6.30
2018-11-27T20:47:55.215Z,-6.30
2018-11-27T20:50:24.123Z,-6.30
2018-11-27T20:52:52.729Z,-6.30
2018-11-27T20:55:21.743Z,-6.30
2018-11-27T20:57:52.869Z,-6.30
2018-11-27T21:00:24.525Z,-6.20
2018-11-27T21:02:55.858Z,-6.10
2018-11-27T21:05:24.692Z,-6.10
2018-11-27T21:07:53.348Z,-6.00
2018-11-27T21:10:21.983Z,-5.80
2018-11-27T21:12:50.851Z,-5.70
2018-11-27T21:15:19.940Z,-5.60
2018-11-27T21:17:48.483Z,-5.50
2018-11-27T21:20:17.490Z,-5.40
2018-11-27T21:22:47.499Z,-5.30
2018-11-27T21:25:21.045Z,-5.20
2018-11-27T21:27:52.416Z,-5.10
2018-11-27T21:30:21.807Z,-5.00
2018-11-27T21:32:51.464Z,-5.00
2018-11-27T21:35:20.163Z,-4.90
2018-11-27T21:37:48.768Z,-4.90
2018-11-27T21:40:18.223Z,-4.90
2018-11-27T21:42:46.807Z,-4.80
2018-11-27T21:45:26.062Z,-4.80
2018-11-27T21:47:55.571Z,-4.80
2018-11-27T21:50:29.582Z,-4.80
2018-11-27T21:52:59.303Z,-4.80
2018-11-27T21:55:27.835Z,-4.70
2018-11-27T21:57:56.392Z,-4.80
2018-11-27T22:00:25.892Z,-4.70
2018-11-27T22:02:54.699Z,-4.70
2018-11-27T22:05:24.268Z,-4.70
2018-11-27T22:07:53.325Z,-4.80
2018-11-27T22:10:23.083Z,-4.80
2018-11-27T22:12:54.906Z,-4.70
2018-11-27T22:15:32.031Z,-4.70
2018-11-27T22:18:00.698Z,-4.70
2018-11-27T22:20:29.235Z,-4.70
2018-11-27T22:22:57.780Z,-4.70
2018-11-27T22:25:26.365Z,-4.70
2018-11-27T22:27:55.354Z,-4.70
2018-11-27T22:30:23.904Z,-4.70
2018-11-27T22:32:54.167Z,-4.70
2018-11-27T22:35:22.736Z,-4.70
2018-11-27T22:37:51.296Z,-4.70
2018-11-27T22:40:21.193Z,-4.70
2018-11-27T22:42:50.623Z,-4.70
2018-11-27T22:45:24.765Z,-4.70
2018-11-27T22:47:53.319Z,-4.70
2018-11-27T22:50:21.883Z,-4.60
2018-11-27T22:52:50.511Z,-4.60
2018-11-27T22:55:19.113Z,-4.60
2018-11-27T22:57:47.645Z,-4.60
2018-11-27T23:00:21.763Z,-4.60
2018-11-27T23:02:50.373Z,-4.50
2018-11-27T23:05:20.132Z,-4.50
2018-11-27T23:07:48.743Z,-4.50
2018-11-27T23:10:17.338Z,-4.50
2018-11-27T23:12:46.119Z,-4.50
2018-11-27T23:15:17.712Z,-4.50
2018-11-27T23:17:46.270Z,-4.50
2018-11-27T23:20:17.058Z,-4.50
2018-11-27T23:22:45.722Z,-4.50
2018-11-27T23:25:15.387Z,-4.50
2018-11-27T23:27:43.983Z,-4.50
2018-11-27T23:30:14.776Z,-4.40
2018-11-27T23:32:43.400Z,-4.40
2018-11-27T23:35:12.038Z,-4.30
2018-11-27T23:37:40.671Z,-4.30
2018-11-27T23:40:12.158Z,-4.30
2018-11-27T23:42:41.087Z,-4.30
2018-11-27T23:45:13.437Z,-4.30
2018-11-27T23:47:42.027Z,-4.30
2018-11-27T23:50:14.535Z,-4.30
2018-11-27T23:52:44.059Z,-4.30
2018-11-27T23:55:13.599Z,-4.30
2018-11-27T23:57:42.455Z,-4.30
